createdAt,value
2023-03-30T00:01:17.082Z,37.20
2023-03-30T00:03:47.423Z,42.20
2023-03-30T00:06:21.842Z,46.10
2023-03-30T00:08:57.017Z,49.00
2023-03-30T00:11:26.622Z,49.40
2023-03-30T00:13:55.055Z,52.90
2023-03-30T00:16:24.067Z,56.50
2023-03-30T00:18:52.486Z,60.20
2023-03-30T00:21:21.247Z,60.30
2023-03-30T00:23:52.262Z,63.10
2023-03-30T00:26:20.732Z,65.60
2023-03-30T00:28:49.118Z,63.60
2023-03-30T00:31:17.468Z,63.20
2023-03-30T00:33:47.887Z,64.70
2023-03-30T00:36:17.733Z,62.30
2023-03-30T00:38:48.289Z,59.90
2023-03-30T00:41:18.427Z,59.50
2023-03-30T00:43:58.327Z,60.10
2023-03-30T00:46:26.907Z,59.50
2023-03-30T00:48:58.724Z,61.90
2023-03-30T00:51:29.025Z,60.20
2023-03-30T00:54:02.603Z,62.40
2023-03-30T00:56:32.314Z,61.60
2023-03-30T00:59:02.775Z,62.20
2023-03-30T01:01:38.429Z,62.70
2023-03-30T01:04:09.681Z,65.30
2023-03-30T01:06:40.814Z,74.80
2023-03-30T01:09:09.509Z,82.90
2023-03-30T01:11:39.015Z,87.10
2023-03-30T01:14:10.148Z,92.10
2023-03-30T01:16:45.060Z,95.50
2023-03-30T01:19:43.633Z,97.50
2023-03-30T01:22:28.630Z,99.70
2023-03-30T01:25:39.223Z,99.90
2023-03-30T01:28:21.806Z,99.90
2023-03-30T01:31:27.139Z,99.90
2023-03-30T01:34:13.219Z,99.90
2023-03-30T01:37:20.770Z,99.90
2023-03-30T01:39:57.152Z,99.90
2023-03-30T01:42:32.021Z,99.90
2023-03-30T01:45:10.766Z,99.90
2023-03-30T01:47:44.824Z,99.90
2023-03-30T01:50:18.127Z,99.90
2023-03-30T01:52:54.582Z,99.90
2023-03-30T01:55:29.470Z,99.90
2023-03-30T01:58:04.005Z,99.90
2023-03-30T02:00:32.977Z,99.90
2023-03-30T02:03:06.619Z,99.90
2023-03-30T02:05:37.081Z,99.90
2023-03-30T02:08:09.856Z,99.90
2023-03-30T02:10:40.457Z,99.90
2023-03-30T02:13:09.930Z,99.90
2023-03-30T02:15:42.050Z,99.90
2023-03-30T02:18:11.139Z,99.90
2023-03-30T02:20:39.844Z,99.90
2023-03-30T02:23:08.611Z,99.90
2023-03-30T02:25:40.307Z,99.90
2023-03-30T02:28:08.964Z,99.90
2023-03-30T02:30:40.417Z,99.90
2023-03-30T02:33:12.457Z,99.90
2023-03-30T02:35:57.600Z,99.90
2023-03-30T02:38:41.651Z,99.90
2023-03-30T02:41:22.460Z,99.90
2023-03-30T02:44:02.004Z,99.90
2023-03-30T02:46:47.147Z,99.90
2023-03-30T02:49:20.893Z,99.90
2023-03-30T02:51:58.714Z,99.90
2023-03-30T02:54:43.810Z,99.90
2023-03-30T02:57:42.663Z,99.90
2023-03-30T03:00:39.177Z,99.90
2023-03-30T03:03:17.386Z,99.90
2023-03-30T03:05:46.080Z,99.90
2023-03-30T03:08:18.891Z,99.90
2023-03-30T03:10:49.678Z,99.90
2023-03-30T03:13:22.116Z,99.90
2023-03-30T03:15:55.373Z,99.90
2023-03-30T03:18:24.135Z,99.90
2023-03-30T03:20:52.902Z,99.90
2023-03-30T03:23:24.757Z,99.90
2023-03-30T03:25:56.092Z,99.90
2023-03-30T03:28:26.302Z,99.90
2023-03-30T03:31:00.057Z,99.90
2023-03-30T03:33:28.752Z,99.90
2023-03-30T03:36:05.740Z,99.90
2023-03-30T03:38:37.306Z,99.90
2023-03-30T03:41:12.842Z,99.90
2023-03-30T03:43:43.908Z,99.90
2023-03-30T03:46:12.878Z,99.90
2023-03-30T03:48:41.608Z,99.90
2023-03-30T03:51:11.180Z,99.90
2023-03-30T03:53:39.849Z,99.90
2023-03-30T03:56:12.725Z,99.90
2023-03-30T03:58:40.984Z,99.90
2023-03-30T04:01:14.427Z,99.90
2023-03-30T04:03:42.829Z,99.90
2023-03-30T04:06:11.400Z,99.90
2023-03-30T04:08:39.735Z,99.90
2023-03-30T04:11:22.222Z,99.90
2023-03-30T04:14:10.490Z,99.90
2023-03-30T04:17:00.046Z,99.90
2023-03-30T04:19:53.573Z,99.90
2023-03-30T04:22:41.714Z,99.90
2023-03-30T04:25:30.137Z,99.90
2023-03-30T04:28:21.641Z,99.90
2023-03-30T04:31:02.603Z,99.90
2023-03-30T04:33:53.397Z,99.90
2023-03-30T04:36:38.043Z,99.90
2023-03-30T04:39:30.306Z,99.90
2023-03-30T04:42:07.347Z,99.90
2023-03-30T04:44:55.712Z,99.90
2023-03-30T04:47:44.094Z,99.90
2023-03-30T04:50:33.712Z,99.90
2023-03-30T04:53:23.006Z,99.90
2023-03-30T04:56:11.545Z,99.90
2023-03-30T04:58:49.818Z,99.90
2023-03-30T05:01:38.047Z,99.90
2023-03-30T05:04:20.449Z,99.90
2023-03-30T05:07:10.945Z,99.90
2023-03-30T05:09:59.024Z,99.90
2023-03-30T05:12:45.827Z,99.90
2023-03-30T05:15:20.479Z,99.90
2023-03-30T05:18:01.107Z,99.90
2023-03-30T05:20:49.281Z,99.90
2023-03-30T05:23:39.696Z,99.90
2023-03-30T05:26:28.980Z,99.90
2023-03-30T05:29:19.295Z,99.90
2023-03-30T05:32:07.598Z,99.90
2023-03-30T05:34:56.586Z,99.90
2023-03-30T05:37:39.746Z,99.90
2023-03-30T05:40:27.784Z,99.90
2023-03-30T05:43:09.578Z,99.90
2023-03-30T05:45:51.512Z,99.90
2023-03-30T05:48:39.686Z,99.90
2023-03-30T05:51:28.025Z,99.90
2023-03-30T05:54:12.862Z,99.90
2023-03-30T05:56:57.504Z,99.90
2023-03-30T05:59:33.093Z,99.90
2023-03-30T06:02:19.710Z,99.90
2023-03-30T06:04:49.005Z,99.90
2023-03-30T06:07:20.703Z,99.90
2023-03-30T06:09:49.920Z,99.90
2023-03-30T06:12:31.594Z,99.90
2023-03-30T06:15:02.521Z,99.90
2023-03-30T06:17:41.539Z,99.90
2023-03-30T06:20:12.561Z,99.90
2023-03-30T06:22:44.670Z,99.90
2023-03-30T06:25:20.075Z,99.90
2023-03-30T06:27:49.630Z,99.90
2023-03-30T06:30:18.385Z,99.90
2023-03-30T06:32:50.538Z,99.90
2023-03-30T06:35:26.223Z,99.90
2023-03-30T06:37:56.645Z,99.90
2023-03-30T06:40:26.113Z,99.90
2023-03-30T06:42:57.091Z,99.90
2023-03-30T06:45:37.095Z,99.90
2023-03-30T06:48:07.117Z,99.90
2023-03-30T06:50:40.493Z,99.90
2023-03-30T06:53:15.485Z,99.90
2023-03-30T06:55:45.842Z,99.90
2023-03-30T06:58:21.540Z,99.90
2023-03-30T07:00:52.292Z,99.90
2023-03-30T07:03:41.257Z,99.90
2023-03-30T07:06:20.082Z,99.90
2023-03-30T07:08:50.075Z,99.90
2023-03-30T07:11:23.511Z,99.90
2023-03-30T07:13:56.214Z,99.90
2023-03-30T07:16:24.924Z,99.90
2023-03-30T07:18:54.673Z,99.90
2023-03-30T07:21:23.825Z,99.90
2023-03-30T07:23:52.180Z,99.90
2023-03-30T07:26:33.178Z,99.90
2023-03-30T07:29:09.043Z,99.90
2023-03-30T07:31:40.202Z,99.90
2023-03-30T07:34:12.010Z,99.90
2023-03-30T07:36:46.247Z,99.90
2023-03-30T07:39:14.683Z,99.90
2023-03-30T07:41:47.239Z,99.90
2023-03-30T07:44:16.803Z,99.90
2023-03-30T07:46:45.258Z,99.90
2023-03-30T07:49:20.274Z,99.90
2023-03-30T07:51:48.675Z,99.90
2023-03-30T07:54:23.249Z,99.90
2023-03-30T07:57:04.600Z,99.90
2023-03-30T07:59:35.798Z,99.90
2023-03-30T08:02:16.720Z,99.90
2023-03-30T08:04:50.095Z,99.90
2023-03-30T08:07:27.533Z,99.90
2023-03-30T08:10:02.457Z,99.90
2023-03-30T08:12:31.009Z,99.90
2023-03-30T08:15:00.746Z,99.90
2023-03-30T08:17:29.180Z,99.90
2023-03-30T08:19:57.488Z,99.90
2023-03-30T08:22:26.001Z,99.90
2023-03-30T08:24:54.414Z,99.90
2023-03-30T08:27:22.847Z,99.90
2023-03-30T08:29:54.283Z,99.90
2023-03-30T08:32:24.376Z,99.90
2023-03-30T08:34:53.923Z,99.90
2023-03-30T08:37:22.560Z,99.90
2023-03-30T08:39:50.854Z,99.90
2023-03-30T08:42:46.528Z,99.90
2023-03-30T08:45:15.091Z,99.90
2023-03-30T08:47:49.128Z,99.90
2023-03-30T08:50:26.433Z,99.90
2023-03-30T08:52:54.767Z,99.90
2023-03-30T08:55:27.938Z,99.90
2023-03-30T08:58:02.065Z,99.90
2023-03-30T09:00:41.779Z,99.90
2023-03-30T09:03:19.205Z,99.90
2023-03-30T09:05:53.908Z,99.90
2023-03-30T09:08:27.463Z,99.90
2023-03-30T09:10:59.747Z,99.90
2023-03-30T09:13:33.536Z,99.90
2023-03-30T09:16:10.427Z,99.90
2023-03-30T09:18:42.192Z,99.90
2023-03-30T09:21:12.973Z,99.90
2023-03-30T09:23:41.765Z,99.90
2023-03-30T09:26:20.293Z,99.90
2023-03-30T09:28:56.841Z,99.90
2023-03-30T09:31:33.267Z,99.90
2023-03-30T09:34:08.542Z,99.90
2023-03-30T09:36:43.879Z,99.90
2023-03-30T09:39:18.253Z,99.90
2023-03-30T09:42:01.012Z,99.90
2023-03-30T09:44:35.693Z,99.90
2023-03-30T09:47:15.263Z,99.90
2023-03-30T09:49:44.947Z,99.90
2023-03-30T09:52:22.248Z,99.90
2023-03-30T09:54:50.664Z,99.90
2023-03-30T09:57:26.443Z,99.90
2023-03-30T09:59:55.875Z,99.90
2023-03-30T10:02:25.767Z,99.90
2023-03-30T10:05:02.214Z,99.90
2023-03-30T10:07:35.020Z,99.90
2023-03-30T10:10:14.300Z,99.90
2023-03-30T10:12:42.708Z,99.90
2023-03-30T10:15:17.863Z,99.90
2023-03-30T10:17:48.513Z,99.90
2023-03-30T10:20:25.382Z,99.90
2023-03-30T10:22:55.841Z,99.90
2023-03-30T10:25:27.335Z,99.90
2023-03-30T10:27:57.969Z,99.90
2023-03-30T10:30:28.455Z,99.90
2023-03-30T10:33:00.270Z,99.90
2023-03-30T10:35:35.668Z,99.90
2023-03-30T10:38:07.856Z,99.90
2023-03-30T10:40:37.972Z,99.90
2023-03-30T10:43:08.528Z,99.90
2023-03-30T10:45:42.819Z,99.90
2023-03-30T10:48:25.354Z,99.90
2023-03-30T10:51:02.916Z,99.90
2023-03-30T10:53:39.803Z,91.40
2023-03-30T10:56:17.227Z,86.20
2023-03-30T10:59:03.865Z,58.70
2023-03-30T11:01:42.847Z,45.80
2023-03-30T11:04:23.586Z,43.20
2023-03-30T11:06:58.284Z,41.70
2023-03-30T11:09:31.607Z,19.50
2023-03-30T11:12:04.255Z,12.10
2023-03-30T11:14:42.615Z,1.80
2023-03-30T11:17:19.112Z,1.00
2023-03-30T11:19:51.766Z,1.00
2023-03-30T11:22:34.298Z,1.00
2023-03-30T11:25:05.152Z,1.00
2023-03-30T11:27:37.072Z,1.50
2023-03-30T11:30:14.387Z,47.60
2023-03-30T11:32:49.191Z,53.50
2023-03-30T11:35:23.065Z,27.10
2023-03-30T11:37:58.712Z,1.00
2023-03-30T11:40:28.709Z,1.00
2023-03-30T11:42:57.381Z,1.00
2023-03-30T11:45:43.265Z,28.00
2023-03-30T11:48:28.066Z,45.90
2023-03-30T11:51:09.402Z,48.70
2023-03-30T11:53:51.916Z,45.20
2023-03-30T11:56:27.821Z,50.00
2023-03-30T11:59:04.886Z,49.20
2023-03-30T12:01:50.225Z,42.90
2023-03-30T12:04:25.435Z,44.90
2023-03-30T12:06:58.274Z,1.00
2023-03-30T12:09:33.259Z,9.80
2023-03-30T12:12:11.938Z,42.30
2023-03-30T12:14:58.937Z,82.80
2023-03-30T12:17:36.099Z,89.30
2023-03-30T12:20:13.743Z,55.80
2023-03-30T12:22:47.154Z,77.70
2023-03-30T12:25:28.601Z,93.50
2023-03-30T12:28:00.331Z,98.00
2023-03-30T12:30:30.794Z,99.90
2023-03-30T12:33:02.782Z,99.90
2023-03-30T12:35:54.723Z,99.90
2023-03-30T12:38:25.508Z,99.90
2023-03-30T12:41:06.090Z,99.90
2023-03-30T12:43:43.176Z,99.90
2023-03-30T12:46:20.326Z,99.90
2023-03-30T12:48:58.736Z,99.90
2023-03-30T12:51:43.848Z,99.90
2023-03-30T12:54:40.765Z,99.90
2023-03-30T12:57:22.666Z,99.90
2023-03-30T13:00:08.278Z,99.90
2023-03-30T13:02:51.739Z,99.90
2023-03-30T13:05:24.674Z,99.90
2023-03-30T13:07:55.212Z,99.90
2023-03-30T13:10:45.396Z,99.90
2023-03-30T13:13:43.351Z,99.90
2023-03-30T13:16:14.259Z,99.90
2023-03-30T13:18:55.396Z,99.90
2023-03-30T13:21:25.854Z,99.90
2023-03-30T13:24:06.903Z,99.90
2023-03-30T13:26:44.620Z,99.90
2023-03-30T13:29:15.178Z,99.90
2023-03-30T13:32:08.623Z,99.90
2023-03-30T13:35:05.447Z,99.90
2023-03-30T13:37:52.206Z,99.90
2023-03-30T13:40:38.490Z,99.90
2023-03-30T13:43:14.087Z,99.90
2023-03-30T13:45:49.022Z,99.90
2023-03-30T13:48:30.947Z,99.90
2023-03-30T13:51:01.664Z,99.90
2023-03-30T13:53:37.145Z,99.90
2023-03-30T13:56:08.744Z,99.90
2023-03-30T13:58:38.273Z,99.90
2023-03-30T14:01:10.611Z,99.90
2023-03-30T14:03:43.636Z,99.90
2023-03-30T14:06:18.961Z,99.90
2023-03-30T14:08:49.409Z,99.90
2023-03-30T14:11:20.456Z,99.90
2023-03-30T14:13:52.066Z,99.90
2023-03-30T14:16:22.720Z,99.90
2023-03-30T14:18:53.034Z,99.90
2023-03-30T14:21:24.032Z,99.90
2023-03-30T14:23:54.294Z,99.90
2023-03-30T14:26:26.246Z,99.90
2023-03-30T14:28:58.725Z,99.90
2023-03-30T14:31:27.670Z,99.90
2023-03-30T14:33:57.421Z,99.90
2023-03-30T14:36:26.020Z,99.90
2023-03-30T14:38:57.310Z,98.50
2023-03-30T14:41:27.799Z,87.70
2023-03-30T14:43:58.585Z,87.10
2023-03-30T14:46:33.031Z,90.60
2023-03-30T14:49:03.662Z,91.30
2023-03-30T14:51:39.469Z,87.60
2023-03-30T14:54:08.416Z,82.20
2023-03-30T14:56:37.768Z,90.60
2023-03-30T14:59:07.669Z,83.20
2023-03-30T15:01:36.316Z,65.50
2023-03-30T15:04:11.356Z,49.50
2023-03-30T15:06:40.179Z,47.80
2023-03-30T15:09:15.617Z,58.70
2023-03-30T15:11:45.433Z,47.90
2023-03-30T15:14:17.051Z,21.90
2023-03-30T15:16:50.511Z,22.50
2023-03-30T15:19:28.669Z,29.20
2023-03-30T15:22:01.220Z,28.50
2023-03-30T15:24:33.361Z,28.80
2023-03-30T15:27:04.668Z,8.60
2023-03-30T15:29:34.065Z,19.70
2023-03-30T15:32:09.076Z,17.30
2023-03-30T15:34:57.707Z,27.00
2023-03-30T15:37:25.965Z,15.30
2023-03-30T15:39:54.240Z,6.30
2023-03-30T15:42:29.366Z,1.60
2023-03-30T15:45:05.727Z,1.00
2023-03-30T15:47:35.374Z,1.00
2023-03-30T15:50:06.358Z,3.60
2023-03-30T15:52:36.960Z,2.30
2023-03-30T15:55:09.804Z,1.00
2023-03-30T15:57:43.760Z,7.90
2023-03-30T16:00:17.641Z,8.50
2023-03-30T16:02:52.924Z,9.80
2023-03-30T16:05:25.484Z,17.30
2023-03-30T16:07:53.859Z,22.90
2023-03-30T16:10:24.718Z,20.70
2023-03-30T16:12:54.328Z,18.50
2023-03-30T16:15:25.327Z,15.40
2023-03-30T16:17:53.968Z,4.40
2023-03-30T16:20:25.856Z,1.00
2023-03-30T16:22:54.434Z,3.70
2023-03-30T16:25:34.092Z,9.60
2023-03-30T16:28:16.954Z,19.10
2023-03-30T16:30:47.866Z,24.20
2023-03-30T16:33:16.250Z,27.50
2023-03-30T16:35:46.061Z,33.60
2023-03-30T16:38:16.338Z,53.80
2023-03-30T16:40:46.640Z,54.50
2023-03-30T16:43:15.424Z,68.00
2023-03-30T16:45:43.817Z,74.60
2023-03-30T16:48:14.925Z,85.60
2023-03-30T16:50:46.951Z,82.50
2023-03-30T16:53:15.356Z,78.20
2023-03-30T16:55:43.600Z,63.80
2023-03-30T16:58:14.834Z,58.90
2023-03-30T17:00:45.946Z,57.80
2023-03-30T17:03:14.606Z,53.00
2023-03-30T17:05:45.645Z,49.30
2023-03-30T17:08:21.479Z,50.10
2023-03-30T17:10:50.810Z,50.30
2023-03-30T17:13:19.263Z,51.60
2023-03-30T17:15:47.736Z,52.90
2023-03-30T17:18:18.432Z,53.70
2023-03-30T17:20:49.238Z,59.10
2023-03-30T17:23:19.301Z,58.80
2023-03-30T17:25:49.576Z,61.60
2023-03-30T17:28:22.461Z,65.60
2023-03-30T17:30:51.303Z,70.60
2023-03-30T17:33:19.862Z,76.20
2023-03-30T17:35:51.167Z,82.10
2023-03-30T17:38:21.753Z,79.30
2023-03-30T17:40:50.166Z,82.60
2023-03-30T17:43:18.755Z,80.50
2023-03-30T17:45:47.517Z,87.40
2023-03-30T17:48:17.413Z,82.70
2023-03-30T17:50:47.822Z,80.00
2023-03-30T17:53:17.767Z,75.20
2023-03-30T17:55:49.499Z,78.90
2023-03-30T17:58:24.353Z,75.80
2023-03-30T18:00:54.494Z,77.70
2023-03-30T18:03:25.542Z,77.60
2023-03-30T18:05:54.718Z,82.10
2023-03-30T18:08:24.352Z,86.70
2023-03-30T18:10:55.585Z,90.50
2023-03-30T18:13:25.246Z,91.50
2023-03-30T18:15:55.590Z,93.40
2023-03-30T18:18:25.998Z,95.00
2023-03-30T18:20:56.010Z,97.10
2023-03-30T18:23:24.670Z,97.40
2023-03-30T18:25:54.285Z,99.00
2023-03-30T18:28:24.893Z,99.90
2023-03-30T18:30:55.123Z,99.90
2023-03-30T18:33:23.703Z,99.90
2023-03-30T18:35:53.367Z,99.90
2023-03-30T18:38:22.835Z,99.90
2023-03-30T18:40:53.580Z,99.90
2023-03-30T18:43:23.346Z,99.90
2023-03-30T18:45:52.086Z,99.90
2023-03-30T18:48:22.143Z,99.90
2023-03-30T18:50:51.763Z,99.90
2023-03-30T18:53:22.047Z,99.90
2023-03-30T18:55:52.138Z,99.90
2023-03-30T18:58:24.234Z,99.90
2023-03-30T19:00:53.744Z,99.90
2023-03-30T19:03:23.015Z,99.90
2023-03-30T19:05:52.148Z,99.90
2023-03-30T19:08:22.289Z,99.90
2023-03-30T19:10:53.062Z,99.90
2023-03-30T19:13:24.337Z,99.90
2023-03-30T19:15:53.790Z,99.90
2023-03-30T19:18:22.611Z,99.90
2023-03-30T19:20:51.901Z,99.90
2023-03-30T19:23:21.596Z,99.90
2023-03-30T19:25:49.972Z,99.90
2023-03-30T19:28:18.773Z,99.90
2023-03-30T19:30:49.261Z,99.90
2023-03-30T19:33:19.778Z,99.90
2023-03-30T19:35:48.396Z,99.90
2023-03-30T19:38:17.128Z,99.90
2023-03-30T19:40:45.351Z,99.90
2023-03-30T19:43:13.760Z,99.90
2023-03-30T19:45:41.983Z,99.90
2023-03-30T19:48:11.821Z,99.90
2023-03-30T19:50:40.679Z,99.90
2023-03-30T19:53:09.640Z,99.90
2023-03-30T19:55:38.503Z,99.90
2023-03-30T19:58:06.983Z,99.90
2023-03-30T20:00:35.789Z,99.90
2023-03-30T20:03:04.268Z,99.90
2023-03-30T20:05:33.853Z,99.90
2023-03-30T20:08:07.974Z,99.90
2023-03-30T20:10:50.152Z,99.90
2023-03-30T20:13:21.862Z,99.90
2023-03-30T20:15:54.195Z,99.90
2023-03-30T20:18:22.676Z,99.90
2023-03-30T20:20:52.490Z,99.90
2023-03-30T20:23:21.060Z,99.90
2023-03-30T20:25:50.471Z,99.90
2023-03-30T20:28:18.889Z,99.90
2023-03-30T20:30:47.173Z,99.90
2023-03-30T20:33:15.484Z,99.90
2023-03-30T20:35:43.736Z,99.90
2023-03-30T20:38:13.728Z,99.90
2023-03-30T20:40:41.965Z,99.90
2023-03-30T20:43:10.825Z,99.90
2023-03-30T20:45:46.035Z,99.90
2023-03-30T20:48:25.951Z,99.90
2023-03-30T20:50:55.415Z,99.90
2023-03-30T20:53:25.918Z,99.90
2023-03-30T20:55:54.336Z,99.90
2023-03-30T20:58:23.321Z,99.90
2023-03-30T21:00:52.919Z,99.90
2023-03-30T21:03:25.954Z,99.90
2023-03-30T21:06:01.327Z,99.90
2023-03-30T21:08:32.561Z,99.90
2023-03-30T21:11:12.383Z,99.90
2023-03-30T21:13:40.661Z,99.90
2023-03-30T21:16:09.378Z,99.90
2023-03-30T21:18:38.937Z,99.90
2023-03-30T21:21:07.313Z,99.90
2023-03-30T21:23:39.896Z,99.90
2023-03-30T21:26:09.409Z,99.90
2023-03-30T21:28:38.478Z,99.90
2023-03-30T21:31:08.815Z,99.90
2023-03-30T21:33:39.117Z,99.90
2023-03-30T21:36:08.601Z,99.90
2023-03-30T21:38:38.803Z,99.90
2023-03-30T21:41:08.863Z,99.90
2023-03-30T21:43:39.898Z,99.90
2023-03-30T21:46:10.825Z,99.90
2023-03-30T21:48:40.701Z,99.90
2023-03-30T21:51:13.565Z,99.90
2023-03-30T21:53:45.000Z,99.90
2023-03-30T21:56:13.801Z,99.90
2023-03-30T21:58:42.170Z,99.90
2023-03-30T22:01:12.902Z,99.90
2023-03-30T22:03:42.163Z,99.90
2023-03-30T22:06:12.941Z,99.90
2023-03-30T22:08:41.389Z,99.90
2023-03-30T22:11:14.074Z,99.90
2023-03-30T22:13:42.643Z,99.90
2023-03-30T22:16:13.813Z,99.90
2023-03-30T22:18:43.149Z,99.90
2023-03-30T22:21:17.087Z,99.90
2023-03-30T22:23:46.080Z,99.90
2023-03-30T22:26:16.042Z,99.90
2023-03-30T22:28:44.860Z,99.90
2023-03-30T22:31:15.162Z,99.90
2023-03-30T22:33:43.993Z,99.90
2023-03-30T22:36:17.174Z,99.90
2023-03-30T22:38:45.768Z,99.90
2023-03-30T22:41:15.690Z,99.90
2023-03-30T22:43:44.162Z,99.90
2023-03-30T22:46:12.399Z,99.90
2023-03-30T22:48:41.998Z,99.90
2023-03-30T22:51:14.021Z,99.90
2023-03-30T22:53:42.448Z,99.90
2023-03-30T22:56:11.516Z,99.90
2023-03-30T22:58:41.390Z,99.90
2023-03-30T23:01:10.282Z,99.90
2023-03-30T23:03:39.008Z,99.90
2023-03-30T23:06:08.080Z,99.90
2023-03-30T23:08:37.042Z,99.90
2023-03-30T23:11:06.448Z,99.90
2023-03-30T23:13:37.246Z,99.90
2023-03-30T23:16:08.418Z,99.90
2023-03-30T23:18:37.400Z,99.90
2023-03-30T23:21:07.412Z,99.90
2023-03-30T23:23:36.802Z,99.90
2023-03-30T23:26:09.029Z,99.90
2023-03-30T23:28:39.367Z,99.90
2023-03-30T23:31:09.782Z,99.90
2023-03-30T23:33:38.438Z,99.90
2023-03-30T23:36:07.617Z,99.90
2023-03-30T23:38:37.247Z,99.90
2023-03-30T23:41:06.000Z,99.90
2023-03-30T23:43:34.540Z,99.90
2023-03-30T23:46:02.865Z,99.90
2023-03-30T23:48:32.973Z,99.90
2023-03-30T23:51:01.301Z,99.90
2023-03-30T23:53:29.723Z,99.90
2023-03-30T23:55:58.173Z,99.90
2023-03-30T23:58:26.919Z,99.90
